Time;durP1;ratioP1;P1;durP2;ratioP2;P2;SDS_P1;SDS_P2;PMS_P1;PMS_P2;Temp;Humidity;BMP_temperature;BMP_pressure;BME280_temperature;BME280_humidity;BME280_pressure;Samples;Min_cycle;Max_cycle;Signal;HPM_P1;HPM_P2
2024/04/17 00:00:20;;;;;;;0.70;0.70;;;;;;;;;;11155829;26;21882;-74
2024/04/17 00:05:25;;;;;;;0.70;0.70;;;;;;;;;;11200224;26;20458;-74
2024/04/17 00:10:33;;;;;;;0.80;0.55;;;;;;;;;;11205471;26;20018;-74
2024/04/17 00:15:39;;;;;;;0.80;0.80;;;;;;;;;;11196976;26;20025;-75
2024/04/17 00:20:44;;;;;;;0.80;0.80;;;;;;;;;;11188396;26;20007;-74
2024/04/17 00:25:51;;;;;;;0.95;0.95;;;;;;;;;;11205304;26;20271;-74
2024/04/17 00:30:57;;;;;;;1.10;1.00;;;;;;;;;;11188219;26;20007;-74
2024/04/17 00:36:02;;;;;;;0.82;0.82;;;;;;;;;;11184404;26;20086;-74
2024/04/17 00:41:10;;;;;;;1.38;1.20;;;;;;;;;;11214611;26;20015;-74
2024/04/17 00:46:16;;;;;;;1.25;1.13;;;;;;;;;;11207040;26;20455;-74
2024/04/17 00:51:21;;;;;;;1.00;0.90;;;;;;;;;;11170611;26;20015;-74
2024/04/17 00:56:29;;;;;;;0.80;0.80;;;;;;;;;;11224769;26;20742;-74
2024/04/17 01:01:34;;;;;;;1.05;0.93;;;;;;;;;;11205819;26;20026;-73
2024/04/17 01:06:39;;;;;;;0.80;0.80;;;;;;;;;;11183912;26;20008;-74
2024/04/17 01:11:47;;;;;;;1.55;1.38;;;;;;;;;;11158535;26;20026;-74
2024/04/17 01:16:52;;;;;;;2.17;1.50;;;;;;;;;;11183747;26;20702;-73
2024/04/17 01:21:57;;;;;;;3.25;1.55;;;;;;;;;;11166444;26;20004;-74
2024/04/17 01:27:05;;;;;;;1.90;1.80;;;;;;;;;;11183177;26;20008;-74
2024/04/17 01:32:10;;;;;;;2.05;1.85;;;;;;;;;;11187663;26;20007;-74
2024/04/17 01:37:15;;;;;;;2.50;1.98;;;;;;;;;;11142217;26;20008;-73
2024/04/17 01:42:23;;;;;;;2.63;1.73;;;;;;;;;;11179838;26;20011;-74
2024/04/17 01:47:28;;;;;;;1.60;1.50;;;;;;;;;;11181344;26;20026;-74
2024/04/17 01:52:33;;;;;;;2.25;2.05;;;;;;;;;;11200027;26;20006;-74
2024/04/17 01:57:41;;;;;;;2.03;1.83;;;;;;;;;;11172301;26;20006;-74
2024/04/17 02:02:46;;;;;;;3.65;3.10;;;;;;;;;;11191213;26;20006;-74
2024/04/17 02:07:51;;;;;;;3.30;2.05;;;;;;;;;;11205128;26;20504;-74
2024/04/17 02:12:58;;;;;;;3.15;1.88;;;;;;;;;;11187919;26;20674;-74
2024/04/17 02:18:03;;;;;;;3.45;2.53;;;;;;;;;;11167920;26;20022;-74
2024/04/17 02:23:09;;;;;;;2.80;2.28;;;;;;;;;;11181848;26;20066;-74
2024/04/17 02:28:16;;;;;;;1.70;1.60;;;;;;;;;;11198823;26;20027;-74
2024/04/17 02:33:21;;;;;;;3.28;2.28;;;;;;;;;;11191911;26;20026;-74
2024/04/17 02:38:26;;;;;;;3.35;2.47;;;;;;;;;;11163119;26;20006;-74
2024/04/17 02:43:34;;;;;;;4.53;2.60;;;;;;;;;;11196938;26;20007;-73
2024/04/17 02:48:39;;;;;;;3.03;2.25;;;;;;;;;;11178101;26;20004;-74
2024/04/17 02:53:44;;;;;;;3.17;2.17;;;;;;;;;;11192165;26;20469;-74
2024/04/17 02:58:52;;;;;;;3.15;2.30;;;;;;;;;;11204629;26;20043;-74
2024/04/17 03:03:57;;;;;;;1.92;1.73;;;;;;;;;;11178949;26;20047;-74
2024/04/17 03:09:02;;;;;;;2.53;2.03;;;;;;;;;;11188283;26;20331;-74
2024/04/17 03:14:09;;;;;;;3.28;2.35;;;;;;;;;;11167255;26;20012;-74
2024/04/17 03:19:14;;;;;;;3.35;1.73;;;;;;;;;;11174777;26;20007;-74
2024/04/17 03:24:19;;;;;;;2.72;1.70;;;;;;;;;;11161602;26;20027;-74
2024/04/17 03:29:27;;;;;;;2.15;1.38;;;;;;;;;;11163517;26;20089;-74
2024/04/17 03:34:32;;;;;;;1.58;1.33;;;;;;;;;;11203111;26;20009;-74
2024/04/17 03:39:37;;;;;;;1.60;1.50;;;;;;;;;;11173250;26;20007;-74
2024/04/17 03:44:45;;;;;;;2.15;1.77;;;;;;;;;;11206562;26;20007;-74
2024/04/17 03:49:50;;;;;;;1.73;1.63;;;;;;;;;;11189464;26;20006;-74
2024/04/17 03:54:58;;;;;;;3.38;2.00;;;;;;;;;;11169937;26;20657;-74
2024/04/17 04:00:07;;;;;;;5.40;2.72;;;;;;;;;;11178075;26;20008;-74
2024/04/17 04:05:12;;;;;;;3.50;2.53;;;;;;;;;;11173876;26;20008;-74
2024/04/17 04:10:17;;;;;;;3.60;2.08;;;;;;;;;;11191559;26;20081;-74
2024/04/17 04:15:25;;;;;;;2.50;1.60;;;;;;;;;;11170216;26;20011;-74
2024/04/17 04:20:30;;;;;;;4.13;1.70;;;;;;;;;;11202420;26;20017;-74
2024/04/17 04:25:35;;;;;;;3.33;2.20;;;;;;;;;;11201155;26;20014;-74
2024/04/17 04:30:43;;;;;;;2.85;1.83;;;;;;;;;;11176312;26;20012;-74
2024/04/17 04:35:48;;;;;;;3.75;2.38;;;;;;;;;;11152570;26;20007;-74
2024/04/17 04:40:53;;;;;;;3.03;2.17;;;;;;;;;;11183636;26;20007;-74
2024/04/17 04:46:01;;;;;;;2.55;1.80;;;;;;;;;;11165058;26;20008;-73
2024/04/17 04:51:06;;;;;;;1.70;1.45;;;;;;;;;;11172760;26;20012;-74
2024/04/17 04:56:11;;;;;;;2.63;1.80;;;;;;;;;;11166192;26;20022;-74
2024/04/17 05:01:19;;;;;;;3.58;2.00;;;;;;;;;;11171017;26;20004;-74
2024/04/17 05:06:24;;;;;;;3.38;2.25;;;;;;;;;;11169203;26;20030;-74
2024/04/17 05:11:29;;;;;;;6.78;2.85;;;;;;;;;;11168033;26;20003;-74
2024/04/17 05:16:37;;;;;;;3.50;2.33;;;;;;;;;;11161727;26;20439;-74
2024/04/17 05:21:42;;;;;;;8.45;4.10;;;;;;;;;;11176105;26;20021;-74
2024/04/17 05:26:47;;;;;;;8.07;3.72;;;;;;;;;;11165457;26;20019;-74
2024/04/17 05:31:54;;;;;;;5.15;3.17;;;;;;;;;;11157990;26;20012;-73
2024/04/17 05:36:59;;;;;;;6.13;3.33;;;;;;;;;;11172755;26;20004;-74
2024/04/17 05:42:05;;;;;;;10.63;4.82;;;;;;;;;;11172832;26;20004;-74
2024/04/17 05:47:13;;;;;;;4.60;3.53;;;;;;;;;;11191023;26;20012;-74
2024/04/17 05:52:20;;;;;;;6.60;3.42;;;;;;;;;;11153005;26;20110;-74
2024/04/17 05:57:25;;;;;;;8.25;3.90;;;;;;;;;;11165727;26;20010;-74
2024/04/17 06:02:32;;;;;;;10.77;4.70;;;;;;;;;;11164686;26;20014;-74
2024/04/17 06:07:38;;;;;;;11.15;4.95;;;;;;;;;;11176994;26;20008;-74
2024/04/17 06:12:43;;;;;;;9.90;4.82;;;;;;;;;;11182077;26;20003;-74
2024/04/17 06:17:50;;;;;;;10.25;4.53;;;;;;;;;;11170823;26;20019;-74
2024/04/17 06:22:55;;;;;;;12.00;4.28;;;;;;;;;;11167306;26;20021;-74
2024/04/17 06:28:01;;;;;;;12.45;4.60;;;;;;;;;;11171427;26;20080;-73
2024/04/17 06:33:09;;;;;;;7.90;4.22;;;;;;;;;;11158247;26;20012;-73
2024/04/17 06:38:14;;;;;;;9.27;4.55;;;;;;;;;;11165841;26;20123;-73
2024/04/17 06:43:19;;;;;;;8.80;4.85;;;;;;;;;;11151466;26;20012;-74
2024/04/17 06:48:27;;;;;;;9.85;4.90;;;;;;;;;;11179422;26;20006;-73
2024/04/17 06:53:32;;;;;;;11.63;6.55;;;;;;;;;;11178933;26;20010;-73
2024/04/17 06:58:36;;;;;;;18.40;8.68;;;;;;;;;;11164276;26;20012;-73
2024/04/17 07:03:44;;;;;;;19.02;7.72;;;;;;;;;;11146180;26;20004;-73
2024/04/17 07:08:49;;;;;;;14.35;7.35;;;;;;;;;;11169187;26;20008;-74
2024/04/17 07:13:55;;;;;;;9.93;4.22;;;;;;;;;;11170828;26;20023;-73
2024/04/17 07:19:02;;;;;;;10.23;4.43;;;;;;;;;;11135069;26;20429;-73
2024/04/17 07:24:07;;;;;;;5.93;3.83;;;;;;;;;;11140412;26;20263;-73
2024/04/17 07:29:12;;;;;;;9.57;3.65;;;;;;;;;;11161311;26;20027;-73
2024/04/17 07:34:20;;;;;;;6.75;3.50;;;;;;;;;;11180691;26;20012;-74
2024/04/17 07:39:25;;;;;;;14.77;7.18;;;;;;;;;;11173778;26;20011;-73
2024/04/17 07:44:31;;;;;;;10.18;5.57;;;;;;;;;;11198576;26;20003;-74
2024/04/17 07:49:39;;;;;;;12.90;6.45;;;;;;;;;;11182591;26;20025;-73
2024/04/17 07:54:44;;;;;;;6.07;2.90;;;;;;;;;;11184741;26;20022;-73
2024/04/17 07:59:49;;;;;;;12.45;4.75;;;;;;;;;;11166513;26;20024;-73
2024/04/17 08:04:57;;;;;;;9.02;5.00;;;;;;;;;;11153530;26;20015;-73
2024/04/17 08:10:02;;;;;;;7.75;4.40;;;;;;;;;;11150062;26;20088;-73
2024/04/17 08:15:10;;;;;;;7.38;4.10;;;;;;;;;;11148711;26;20448;-73
2024/04/17 08:20:18;;;;;;;10.38;4.93;;;;;;;;;;11166258;26;20004;-74
2024/04/17 08:25:23;;;;;;;10.32;3.90;;;;;;;;;;11166372;26;20021;-73
2024/04/17 08:30:28;;;;;;;10.23;3.60;;;;;;;;;;11189398;26;20461;-74
2024/04/17 08:35:38;;;;;;;11.32;4.13;;;;;;;;;;11195851;26;21007;-73
2024/04/17 08:40:44;;;;;;;10.13;6.05;;;;;;;;;;11192300;26;20007;-73
2024/04/17 08:45:49;;;;;;;9.00;5.10;;;;;;;;;;11176325;26;20360;-73
2024/04/17 08:50:58;;;;;;;13.25;6.72;;;;;;;;;;11182096;26;20016;-73
2024/04/17 08:56:03;;;;;;;12.40;5.35;;;;;;;;;;11172276;26;20004;-73
2024/04/17 09:01:11;;;;;;;7.90;4.88;;;;;;;;;;11148752;26;20004;-73
2024/04/17 09:06:19;;;;;;;12.80;5.30;;;;;;;;;;11105566;26;20087;-73
2024/04/17 09:11:25;;;;;;;6.88;4.10;;;;;;;;;;11130684;26;20027;-73
2024/04/17 09:16:30;;;;;;;9.68;4.15;;;;;;;;;;11133078;26;20011;-73
2024/04/17 09:21:40;;;;;;;7.00;3.85;;;;;;;;;;11104834;26;20018;-73
2024/04/17 09:26:46;;;;;;;6.28;3.67;;;;;;;;;;11124507;26;20361;-73
2024/04/17 09:31:51;;;;;;;5.80;3.03;;;;;;;;;;11120686;26;20008;-73
2024/04/17 09:36:59;;;;;;;4.88;2.92;;;;;;;;;;11132348;26;20278;-73
2024/04/17 09:42:08;;;;;;;4.90;2.65;;;;;;;;;;11134979;26;20007;-73
2024/04/17 09:47:14;;;;;;;7.53;3.70;;;;;;;;;;11151168;26;20056;-73
2024/04/17 09:52:23;;;;;;;5.32;2.83;;;;;;;;;;11143015;26;20008;-73
2024/04/17 09:57:28;;;;;;;6.95;2.53;;;;;;;;;;11149903;26;20010;-73
2024/04/17 10:02:34;;;;;;;9.68;2.45;;;;;;;;;;11163724;26;20522;-73
2024/04/17 10:07:44;;;;;;;3.35;1.58;;;;;;;;;;11154879;26;20007;-73
2024/04/17 10:12:52;;;;;;;3.53;2.05;;;;;;;;;;11162961;26;20011;-73
2024/04/17 10:17:57;;;;;;;4.22;1.90;;;;;;;;;;11169419;26;20009;-73
2024/04/17 10:23:08;;;;;;;9.60;2.20;;;;;;;;;;11165358;26;20008;-73
2024/04/17 10:28:14;;;;;;;4.85;2.25;;;;;;;;;;11158914;26;20004;-73
2024/04/17 10:33:27;;;;;;;;;;;;;;;;;;11175154;26;20017;-73
2024/04/17 10:38:35;;;;;;;4.50;1.80;;;;;;;;;;11162340;26;19933;-73
2024/04/17 10:43:42;;;;;;;4.32;2.35;;;;;;;;;;11107680;26;20023;-74
2024/04/17 10:48:48;;;;;;;1.67;1.13;;;;;;;;;;11137182;26;20008;-74
2024/04/17 10:53:57;;;;;;;1.00;0.90;;;;;;;;;;11131993;26;20055;-74
2024/04/17 10:59:03;;;;;;;3.13;1.70;;;;;;;;;;11155399;26;20077;-74
2024/04/17 11:04:08;;;;;;;1.85;1.42;;;;;;;;;;11144667;26;20023;-75
2024/04/17 11:09:16;;;;;;;4.53;1.60;;;;;;;;;;11157908;26;20037;-75
2024/04/17 11:14:21;;;;;;;0.80;0.80;;;;;;;;;;11147943;26;20007;-75
2024/04/17 11:19:26;;;;;;;0.95;0.70;;;;;;;;;;11143037;26;20003;-75
2024/04/17 11:24:34;;;;;;;2.35;1.35;;;;;;;;;;11161880;26;20012;-75
2024/04/17 11:29:40;;;;;;;2.75;1.48;;;;;;;;;;11142665;26;20814;-75
2024/04/17 11:34:46;;;;;;;1.70;1.35;;;;;;;;;;11117614;26;20012;-75
2024/04/17 11:39:54;;;;;;;2.05;1.00;;;;;;;;;;11164473;26;20047;-75
2024/04/17 11:44:59;;;;;;;2.28;1.33;;;;;;;;;;11168312;26;20089;-75
2024/04/17 11:50:05;;;;;;;6.60;3.75;;;;;;;;;;11151697;26;20029;-75
2024/04/17 11:55:12;;;;;;;4.18;2.90;;;;;;;;;;11146809;26;20110;-75
2024/04/17 12:00:17;;;;;;;2.30;1.63;;;;;;;;;;11165680;26;20003;-75
2024/04/17 12:05:23;;;;;;;1.30;1.20;;;;;;;;;;11167822;26;20015;-75
2024/04/17 12:10:31;;;;;;;1.10;0.93;;;;;;;;;;11177466;26;20015;-75
2024/04/17 12:15:36;;;;;;;1.60;1.10;;;;;;;;;;11161892;26;20004;-75
2024/04/17 12:20:41;;;;;;;1.10;0.90;;;;;;;;;;11146657;26;20004;-75
2024/04/17 12:31:10;;;;;;;0.63;0.63;;;;;;;;;;11159888;26;20009;-75
2024/04/17 12:36:15;;;;;;;1.30;0.55;;;;;;;;;;11152802;26;20016;-75
2024/04/17 12:41:22;;;;;;;2.05;1.00;;;;;;;;;;11149778;26;20007;-75
2024/04/17 12:46:27;;;;;;;3.05;1.40;;;;;;;;;;11159223;26;20011;-74
2024/04/17 12:51:32;;;;;;;2.03;1.25;;;;;;;;;;11138760;26;20023;-74
2024/04/17 12:56:40;;;;;;;1.13;1.00;;;;;;;;;;11134597;26;20007;-75
2024/04/17 13:01:45;;;;;;;4.55;1.10;;;;;;;;;;11157726;26;20003;-75
2024/04/17 13:06:50;;;;;;;1.38;0.90;;;;;;;;;;11150195;26;20004;-75
2024/04/17 13:11:58;;;;;;;0.60;0.60;;;;;;;;;;11150962;26;20008;-75
2024/04/17 13:17:03;;;;;;;0.57;0.57;;;;;;;;;;11131821;26;20710;-75
2024/04/17 13:22:08;;;;;;;0.82;0.80;;;;;;;;;;11181421;26;20007;-74
2024/04/17 13:27:16;;;;;;;1.05;0.80;;;;;;;;;;11157821;26;20012;-74
2024/04/17 13:32:21;;;;;;;1.33;0.80;;;;;;;;;;11162028;26;19999;-74
2024/04/17 13:37:27;;;;;;;1.20;1.05;;;;;;;;;;11144168;26;20041;-74
2024/04/17 13:42:34;;;;;;;2.08;1.13;;;;;;;;;;11178602;26;20011;-74
2024/04/17 13:47:39;;;;;;;3.45;1.63;;;;;;;;;;11134421;26;20027;-75
2024/04/17 13:52:45;;;;;;;1.63;1.30;;;;;;;;;;11174374;26;20019;-74
2024/04/17 13:57:52;;;;;;;3.05;1.77;;;;;;;;;;11162664;26;20019;-75
2024/04/17 14:02:59;;;;;;;2.10;1.40;;;;;;;;;;11138649;26;20543;-74
2024/04/17 14:08:04;;;;;;;2.80;1.23;;;;;;;;;;11172516;26;20077;-74
2024/04/17 14:13:12;;;;;;;1.27;1.17;;;;;;;;;;11142096;26;20012;-74
2024/04/17 14:18:17;;;;;;;1.98;1.50;;;;;;;;;;11162437;26;20015;-74
2024/04/17 14:23:25;;;;;;;4.50;1.90;;;;;;;;;;11150911;26;20462;-74
2024/04/17 14:28:36;;;;;;;2.72;1.50;;;;;;;;;;11160582;26;20102;-74
2024/04/17 14:33:41;;;;;;;2.92;1.20;;;;;;;;;;11156977;26;20009;-74
2024/04/17 14:38:48;;;;;;;2.35;0.88;;;;;;;;;;11118361;26;20015;-74
2024/04/17 14:43:56;;;;;;;1.95;1.40;;;;;;;;;;11169652;26;20011;-74
2024/04/17 14:49:01;;;;;;;1.65;0.88;;;;;;;;;;11099418;26;20000;-74
2024/04/17 14:54:07;;;;;;;4.45;1.98;;;;;;;;;;11160971;26;20026;-74
2024/04/17 14:59:15;;;;;;;2.60;1.33;;;;;;;;;;11127128;26;20461;-74
2024/04/17 15:04:20;;;;;;;2.97;1.50;;;;;;;;;;11162718;26;20503;-74
2024/04/17 15:09:25;;;;;;;3.38;1.60;;;;;;;;;;11152901;26;20015;-74
2024/04/17 15:14:33;;;;;;;1.65;1.20;;;;;;;;;;11175788;26;20022;-74
2024/04/17 15:19:38;;;;;;;2.30;1.27;;;;;;;;;;11172912;26;20023;-74
2024/04/17 15:24:46;;;;;;;1.42;0.90;;;;;;;;;;11146551;26;20011;-74
2024/04/17 15:29:55;;;;;;;3.88;1.63;;;;;;;;;;11176193;26;20974;-74
2024/04/17 15:35:00;;;;;;;2.83;1.60;;;;;;;;;;11164393;26;20012;-74
2024/04/17 15:40:06;;;;;;;4.25;1.48;;;;;;;;;;11124512;26;20011;-74
2024/04/17 15:45:14;;;;;;;3.23;1.33;;;;;;;;;;11173670;26;20007;-73
2024/04/17 15:50:19;;;;;;;2.78;1.45;;;;;;;;;;11171451;26;20015;-73
2024/04/17 15:55:24;;;;;;;2.78;1.10;;;;;;;;;;11159270;26;20007;-74
2024/04/17 16:00:32;;;;;;;3.40;1.02;;;;;;;;;;11154381;21;20021;-73
2024/04/17 16:05:37;;;;;;;2.47;1.00;;;;;;;;;;11138716;26;20020;-73
2024/04/17 16:10:42;;;;;;;1.52;0.88;;;;;;;;;;11108213;26;20008;-73
2024/04/17 16:15:53;;;;;;;2.35;1.10;;;;;;;;;;11087028;26;20024;-73
2024/04/17 16:20:59;;;;;;;1.23;0.63;;;;;;;;;;11093128;26;20015;-75
2024/04/17 16:26:11;;;;;;;2.43;1.10;;;;;;;;;;11084076;26;20000;-75
2024/04/17 16:31:20;;;;;;;4.57;1.33;;;;;;;;;;11086750;26;20254;-75
2024/04/17 16:36:25;;;;;;;2.45;0.80;;;;;;;;;;11091941;26;20016;-75
2024/04/17 16:41:30;;;;;;;2.17;1.23;;;;;;;;;;11095612;26;20017;-75
2024/04/17 16:46:38;;;;;;;3.63;0.90;;;;;;;;;;11091561;26;20004;-75
2024/04/17 16:51:43;;;;;;;2.55;1.00;;;;;;;;;;11079068;26;20008;-75
2024/04/17 16:56:48;;;;;;;2.50;1.15;;;;;;;;;;11110197;26;20468;-75
2024/04/17 17:01:56;;;;;;;8.18;3.25;;;;;;;;;;11108905;26;20004;-75
2024/04/17 17:07:01;;;;;;;2.53;1.67;;;;;;;;;;11093695;26;20023;-75
2024/04/17 17:12:07;;;;;;;3.78;1.90;;;;;;;;;;11095726;26;20028;-75
2024/04/17 17:17:15;;;;;;;2.30;1.30;;;;;;;;;;11073644;26;20576;-75
2024/04/17 17:22:23;;;;;;;2.22;1.50;;;;;;;;;;11083348;26;20004;-75
2024/04/17 17:27:28;;;;;;;2.47;1.40;;;;;;;;;;11099354;26;20008;-75
2024/04/17 17:32:36;;;;;;;1.20;0.80;;;;;;;;;;11079369;26;20029;-75
2024/04/17 17:37:41;;;;;;;1.67;1.10;;;;;;;;;;11108136;26;20019;-75
2024/04/17 17:42:46;;;;;;;1.75;0.77;;;;;;;;;;11092103;26;20019;-75
2024/04/17 17:47:53;;;;;;;2.63;1.02;;;;;;;;;;11075589;26;20361;-75
2024/04/17 17:53:00;;;;;;;2.47;1.35;;;;;;;;;;11081103;26;20023;-75
2024/04/17 17:58:05;;;;;;;2.43;1.30;;;;;;;;;;11084839;26;20365;-75
2024/04/17 18:03:13;;;;;;;1.23;0.90;;;;;;;;;;11085685;26;20008;-75
2024/04/17 18:08:18;;;;;;;1.98;1.00;;;;;;;;;;11090528;26;20004;-75
2024/04/17 18:13:25;;;;;;;1.98;0.80;;;;;;;;;;11084915;26;21666;-75
2024/04/17 18:18:34;;;;;;;0.77;0.60;;;;;;;;;;11088077;26;20008;-75
2024/04/17 18:23:41;;;;;;;2.35;0.70;;;;;;;;;;11066459;26;20066;-75
2024/04/17 18:28:46;;;;;;;;;;;;;;;;;;11044797;26;20005;-75
2024/04/17 18:33:53;;;;;;;1.88;0.88;;;;;;;;;;11088416;26;19925;-75
2024/04/17 18:38:58;;;;;;;1.90;0.80;;;;;;;;;;11054604;26;20009;-75
2024/04/17 18:44:09;;;;;;;0.82;0.50;;;;;;;;;;11088352;26;20118;-75
2024/04/17 18:49:19;;;;;;;2.90;1.00;;;;;;;;;;11082516;26;20013;-75
2024/04/17 18:54:24;;;;;;;1.27;0.80;;;;;;;;;;11103626;26;20031;-75
2024/04/17 18:59:29;;;;;;;1.38;0.90;;;;;;;;;;11096741;26;20008;-75
2024/04/17 19:04:37;;;;;;;1.73;0.73;;;;;;;;;;11093503;26;20346;-75
2024/04/17 19:09:43;;;;;;;1.17;0.90;;;;;;;;;;11082319;26;20019;-75
2024/04/17 19:14:48;;;;;;;0.88;0.50;;;;;;;;;;11100575;26;20019;-75
2024/04/17 19:19:55;;;;;;;0.75;0.60;;;;;;;;;;11092530;26;20343;-75
2024/04/17 19:25:01;;;;;;;0.93;0.70;;;;;;;;;;11092331;26;20004;-75
2024/04/17 19:30:08;;;;;;;0.80;0.60;;;;;;;;;;11076622;26;20116;-75
2024/04/17 19:35:16;;;;;;;1.48;0.73;;;;;;;;;;11083646;26;20833;-75
2024/04/17 19:40:21;;;;;;;0.57;0.57;;;;;;;;;;11099063;26;20580;-75
2024/04/17 19:45:26;;;;;;;0.65;0.60;;;;;;;;;;11089483;26;20019;-75
2024/04/17 19:50:34;;;;;;;0.70;0.70;;;;;;;;;;11101337;26;20546;-75
2024/04/17 19:55:40;;;;;;;0.82;0.60;;;;;;;;;;11103416;26;20344;-74
2024/04/17 20:00:45;;;;;;;0.60;0.50;;;;;;;;;;11078859;26;20012;-75
2024/04/17 20:05:54;;;;;;;1.05;0.70;;;;;;;;;;11105129;26;20023;-74
2024/04/17 20:11:00;;;;;;;2.08;0.52;;;;;;;;;;11071289;26;20004;-75
2024/04/17 20:16:06;;;;;;;0.98;0.68;;;;;;;;;;11100231;26;20472;-75
2024/04/17 20:21:14;;;;;;;1.13;0.52;;;;;;;;;;11091393;26;20016;-75
2024/04/17 20:26:19;;;;;;;0.75;0.40;;;;;;;;;;11098716;26;20796;-75
2024/04/17 20:31:24;;;;;;;1.10;0.60;;;;;;;;;;11108706;26;20028;-75
2024/04/17 20:37:00;;;;;;;1.23;0.88;;;;;;;;;;11121314;26;20004;-75
2024/04/17 20:42:14;;;;;;;2.83;0.70;;;;;;;;;;11092504;26;20019;-75
2024/04/17 20:47:42;;;;;;;1.33;0.93;;;;;;;;;;11087008;26;20013;-75
2024/04/17 20:53:03;;;;;;;1.23;0.77;;;;;;;;;;11104708;26;20023;-75
2024/04/17 20:58:09;;;;;;;2.42;0.90;;;;;;;;;;11100266;26;20016;-75
2024/04/17 21:03:15;;;;;;;1.05;0.60;;;;;;;;;;11106246;26;20061;-75
2024/04/17 21:08:23;;;;;;;1.92;0.60;;;;;;;;;;11102478;26;20019;-75
2024/04/17 21:13:28;;;;;;;2.00;1.38;;;;;;;;;;11081216;26;20707;-75
2024/04/17 21:18:34;;;;;;;2.17;1.10;;;;;;;;;;11098617;26;20021;-75
2024/04/17 21:23:43;;;;;;;1.13;0.77;;;;;;;;;;11103534;26;20102;-75
2024/04/17 21:28:49;;;;;;;1.55;1.40;;;;;;;;;;11067224;26;20008;-75
2024/04/17 21:33:54;;;;;;;1.50;1.05;;;;;;;;;;11098913;26;20012;-75
2024/04/17 21:39:02;;;;;;;1.92;1.13;;;;;;;;;;11091352;26;20774;-75
2024/04/17 21:44:07;;;;;;;0.88;0.88;;;;;;;;;;11091539;26;20465;-75
2024/04/17 21:49:12;;;;;;;0.70;0.70;;;;;;;;;;11101205;26;20019;-75
2024/04/17 21:54:20;;;;;;;1.55;1.00;;;;;;;;;;11101513;26;20029;-75
2024/04/17 21:59:25;;;;;;;1.27;0.80;;;;;;;;;;11109875;21;19997;-76
2024/04/17 22:04:30;;;;;;;0.90;0.88;;;;;;;;;;11001170;26;20012;-76
2024/04/17 22:09:38;;;;;;;0.70;0.70;;;;;;;;;;11036555;26;20013;-76
2024/04/17 22:14:43;;;;;;;0.88;0.73;;;;;;;;;;11023811;26;20451;-76
2024/04/17 22:19:48;;;;;;;0.73;0.73;;;;;;;;;;11024919;26;20024;-76
2024/04/17 22:24:55;;;;;;;0.90;0.70;;;;;;;;;;11035776;26;20017;-76
2024/04/17 22:30:01;;;;;;;0.85;0.70;;;;;;;;;;11029605;26;20469;-76
2024/04/17 22:35:07;;;;;;;0.80;0.80;;;;;;;;;;11023966;26;20024;-76
2024/04/17 22:40:14;;;;;;;1.30;0.70;;;;;;;;;;11031303;26;20021;-76
2024/04/17 22:45:19;;;;;;;0.98;0.73;;;;;;;;;;11035111;26;20019;-75
2024/04/17 22:50:24;;;;;;;1.33;0.90;;;;;;;;;;11034967;26;20020;-77
2024/04/17 22:55:32;;;;;;;1.50;1.20;;;;;;;;;;11020283;26;20185;-76
2024/04/17 23:00:38;;;;;;;1.17;1.08;;;;;;;;;;11020868;26;20008;-76
2024/04/17 23:05:43;;;;;;;1.50;1.13;;;;;;;;;;11034391;26;20015;-76
2024/04/17 23:10:59;;;;;;;1.60;1.10;;;;;;;;;;11031370;26;20361;-76
2024/04/17 23:16:04;;;;;;;0.90;0.82;;;;;;;;;;11030235;26;20099;-76
2024/04/17 23:21:09;;;;;;;2.17;1.70;;;;;;;;;;10997615;26;20005;-76
2024/04/17 23:26:17;;;;;;;1.92;1.75;;;;;;;;;;11033320;26;20908;-75
2024/04/17 23:31:22;;;;;;;1.20;1.10;;;;;;;;;;11028538;26;20020;-76
2024/04/17 23:36:27;;;;;;;2.50;1.90;;;;;;;;;;11034643;26;20013;-76
2024/04/17 23:41:35;;;;;;;2.33;1.35;;;;;;;;;;11041535;26;20016;-75
2024/04/17 23:46:40;;;;;;;2.70;1.50;;;;;;;;;;11040310;26;20020;-76
2024/04/17 23:51:45;;;;;;;2.42;1.60;;;;;;;;;;11040308;26;20024;-76
2024/04/17 23:56:53;;;;;;;3.30;1.40;;;;;;;;;;11038436;26;20009;-76
